Pahranagat National Wildlife Refuge, Nevada Weather observations

Data are for 10 minute period ending at time listed.
 Day   Time   Solar   Ave.   Ave.  Ave.  Vector  Max.   Baro.   Total    
  of    of     Rad.   Air    Rel.  Wind   Wind   Wind  Press.  Precip.   
Year   Day            Temp.  Hum.  Speed  Dir.   Gust                    
2017   (PST)  Kw/m2    F      %     mph   deg.    mph    mb.     in.     
-------------------------------------------------------------------------
  19   21:50   0.00   30.5    95    2.4    54     4.3   894.2    0.00 
  19   22:00   0.00   31.0    95    2.0    37     3.2   894.2    0.00 
  19   22:10   0.00   30.2    94    3.1    13     4.2   894.2    0.00 
  19   22:20   0.00   29.8    95    2.3   355     3.7   894.1    0.00 
  19   22:30   0.00   27.9    95    2.1   294     3.6   894.1    0.00 
  19   22:40   0.00   28.5    95    1.3     9     1.9   894.0    0.00 
  19   22:50   0.00   29.5    96    0.1    19     0.9   893.9    0.00 
  19   23:00   0.00   29.6    95    0.5   346     2.0   893.9    0.00 
  19   23:10   0.00   28.4    95    0.0     0     0.0   893.8    0.00 
  19   23:20   0.00   28.4    95    0.4   270     2.4   893.7    0.00 
  19   23:30   0.00   28.1    95    0.9   284     2.5   893.6    0.00 
  19   23:40   0.00   28.5    96    1.0    50     1.4   893.7    0.00 
  19   23:50   0.00   29.0    96    1.6    60     2.4   893.6    0.00 
  20    0:00   0.00   28.8    95    1.4    10     3.3   893.5    0.00 
  20    0:10   0.00   26.7    95    1.9   326     2.6   893.5    0.00 
  20    0:20   0.00   27.2    96    1.4   319     2.3   893.2    0.00 
  20    0:30   0.00   28.8    96    2.2   344     3.1   893.2    0.00 
  20    0:40   0.00   30.2    96    1.6    11     2.7   893.0    0.00 
  20    0:50   0.00   30.6    96    0.5   336     1.4   893.0    0.00 
  20    1:00   0.00   31.5    96    2.0   336     3.5   892.9    0.00 
  20    1:10   0.00   32.1    96    2.1   339     3.9   892.9    0.00 
  20    1:20   0.00   32.3    96    1.6   329     3.9   892.8    0.00 
  20    1:30   0.00   32.3    95    1.4   309     2.7   892.8    0.00 
  20    1:40   0.00   32.5    96    2.3   296     3.2   893.0    0.00 
  20    1:50   0.00   32.6    95    0.7   332     2.2   892.9    0.00 
  20    2:00   0.00   32.7    95    3.0   316     4.5   892.9    0.00 
  20    2:10   0.00   32.6    95    2.9   328     5.7   893.0    0.00 
  20    2:20   0.00   32.7    95    1.8   360     4.3   892.9    0.00 
  20    2:30   0.00   32.8    95    2.0   310     3.0   892.9    0.00 
  20    2:40   0.00   32.8    95    1.8   289     3.2   892.9    0.00 
  20    2:50   0.00   32.9    95    3.1   353     3.9   892.5    0.00 
  20    3:00   0.00   32.9    95    2.4   319     4.7   892.2    0.00 
  20    3:10   0.00   33.0    96    2.6   262     3.9   892.0    0.00 
  20    3:20   0.00   33.5    96    3.0   230     4.5   892.1    0.00 
  20    3:30   0.00   33.9    96    1.3   203     3.4   892.1    0.00 
  20    3:40   0.00   34.0    95    0.9   252     2.8   892.0    0.00 
  20    3:50   0.00   33.9    95    2.0    10     3.4   891.9    0.00 
  20    4:00   0.00   33.9    95    1.2    12     2.1   891.7    0.00 
  20    4:10   0.00   34.1    95    1.2    17     2.4   891.6    0.00 
  20    4:20   0.00   34.3    95    0.0     0     0.0   891.3    0.01 
  20    4:30   0.00   34.1    95    1.2   272     2.4   891.1    0.00 
  20    4:40   0.00   34.1    95    2.1   275     3.4   891.1    0.00 
  20    4:50   0.00   34.0    95    1.3   299     2.6   891.1    0.00 
  20    5:00   0.00   34.0    95    0.4    11     1.7   891.0    0.00 
  20    5:10   0.00   34.1    95    1.4    66     2.3   890.9    0.00 
  20    5:20   0.00   34.3    95    1.0    47     2.5   890.7    0.00 
  20    5:30   0.00   34.4    95    0.5    31     2.0   890.4    0.01 
  20    5:40   0.00   34.5    95    0.8    71     2.0   890.2    0.00 
  20    5:50   0.00   34.6    95    0.8    26     1.8   890.3    0.00 
  20    6:00   0.00   34.3    95    1.6   261     2.8   890.2    0.00 
  20    6:10   0.00   34.1    96    0.9   294     2.9   889.9    0.00 
  20    6:20   0.00   34.1    96    1.3    31     2.2   889.8    0.00 
  20    6:30   0.00   34.2    96    2.6    58     3.9   889.6    0.00 
  20    6:40   0.00   34.5    96    1.5    40     3.4   889.5    0.00 
  20    6:50   0.00   34.4    96    1.6   286     2.6   889.6    0.00 
  20    7:00   0.00   34.4    96    1.5   309     2.3   889.6    0.00 
  20    7:10   0.00   34.4    96    2.8    17     3.8   889.3    0.00 
  20    7:20   0.01   34.7    96    2.1   329     4.7   889.0    0.01 
  20    7:30   0.01   34.7    96    2.5   284     3.6   889.0    0.00 
  20    7:40   0.01   35.0    96    1.3   330     2.1   889.0    0.00 
  20    7:50   0.02   35.3    96    0.8     3     2.3   889.0    0.00 
  20    8:00   0.02   35.7    96    2.1   345     3.4   888.9    0.00 
  20    8:10   0.02   36.0    96    2.6   319     4.5   889.2    0.00 
  20    8:20   0.02   36.3    96    0.9   326     3.1   889.4    0.01 
  20    8:30   0.01   36.5    96    0.9    88     2.5   889.5    0.00 
  20    8:40   0.02   36.9    96    2.9    73     4.3   889.3    0.00 
  20    8:50   0.03   37.7    96    5.0   125     8.5   889.1    0.00 
  20    9:00   0.04   38.3    96    4.7   128     6.4   888.8    0.00 
  20    9:10   0.05   38.9    95    3.9   144     6.1   888.8    0.00 
  20    9:20   0.03   39.2    94    2.4   176     5.3   888.9    0.00 
  20    9:30   0.03   39.2    94    4.3   147     7.1   888.9    0.00 
  20    9:40   0.03   39.3    93    3.7   139     5.3   888.8    0.00 
  20    9:50   0.03   39.4    92    3.3   136     4.5   888.8    0.00 
  20   10:00   0.02   39.3    92    5.9   169    10.5   888.8    0.01 
  20   10:10   0.03   39.3    90    8.6   157    11.8   888.7    0.01 
  20   10:20   0.05   39.2    90    8.9   146    12.9   888.4    0.01 
  20   10:30   0.05   39.1    90    7.4   136    10.7   887.9    0.00 
  20   10:40   0.04   39.1    90    5.2   145     7.5   887.7    0.00 
  20   10:50   0.02   39.3    90    6.4   145     9.9   887.4    0.00 
  20   11:00   0.04   39.5    91    6.8   139     9.6   887.1    0.01 
  20   11:10   0.05   39.8    92    6.5   149     9.4   886.9    0.00 
  20   11:20   0.05   40.0    91    9.2   151    12.9   886.6    0.01 
  20   11:30   0.07   40.2    90   11.0   152    15.3   886.2    0.00 
  20   11:40   0.06   40.4    89   11.8   155    17.0   886.1    0.00 
  20   11:50   0.05   40.6    88   12.2   157    17.2   885.9    0.00 
  20   12:00   0.04   40.5    89   12.2   146    17.2   885.7    0.00 
  20   12:10   0.03   40.3    90   13.4   144    18.1   885.5    0.00 
  20   12:20   0.03   40.2    91   13.2   150    20.2   885.3    0.00 
  20   12:30   0.05   40.2    90   15.4   149    21.8   885.2    0.00 
  20   12:40   0.04   40.2    90   14.7   147    19.1   885.1    0.01 
  20   12:50   0.04   40.0    89   14.2   145    18.3   884.9    0.00 
  20   13:00   0.04   40.0    90   12.9   145    18.4   884.6    0.01 
  20   13:10   0.03   40.1    89   13.3   150    18.3   884.3    0.01 
  20   13:20   0.03   40.1    89   13.9   152    19.4   884.2    0.00 
  20   13:30   0.05   40.1    89   13.4   151    20.0   884.0    0.01 
  20   13:40   0.06   40.3    89   13.7   150    18.9   883.7    0.00 
  20   13:50   0.07   40.4    88   17.0   147    24.8   883.3    0.00 
  20   14:00   0.04   40.4    88   17.2   149    23.0   883.1    0.00 
  20   14:10   0.04   40.2    89   17.2   151    22.6   883.1    0.00 
  20   14:20   0.04   40.3    89   17.5   153    25.0   883.1    0.00 
  20   14:30   0.03   40.2    88   18.2   151    25.7   883.1    0.00 
  20   14:40   0.03   40.0    89   18.7   151    26.0   883.0    0.00 
  20   14:50   0.03   39.9    89   18.2   148    24.5   882.9    0.00 
  20   15:00   0.02   39.8    89   16.7   147    22.1   882.8    0.00 
  20   15:10   0.02   39.8    90   15.5   145    24.0   882.7    0.00 
  20   15:20   0.01   39.7    90   14.4   147    19.3   882.7    0.00 
  20   15:30   0.01   39.8    90   14.7   150    19.9   882.6    0.01 
  20   15:40   0.02   39.8    90   16.3   150    24.6   882.5    0.00 
  20   15:50   0.01   39.7    89   15.9   148    23.8   882.5    0.01 
  20   16:00   0.01   39.6    89   14.4   146    20.5   882.3    0.01 
  20   16:10   0.01   39.6    88   14.9   148    21.0   882.2    0.01 
  20   16:20   0.01   39.6    88   14.0   148    19.7   882.2    0.00 
  20   16:30   0.01   39.5    89   12.8   147    17.4   882.0    0.01 
  20   16:40   0.00   39.4    89   12.8   149    18.4   881.9    0.01 
  20   16:50   0.00   39.1    89   10.6   145    14.6   881.6    0.01 
  20   17:00   0.00   39.1    89    9.7   146    15.3   881.4    0.00 
  20   17:10   0.00   39.4    89    9.9   150    15.4   881.2    0.00 
  20   17:20   0.00   39.4    90    8.6   158    11.6   881.2    0.01 
  20   17:30   0.00   39.4    89    9.2   141    15.9   881.0    0.00 
  20   17:40   0.00   39.4    89   14.0   140    19.1   880.8    0.01 
  20   17:50   0.00   39.4    90   12.6   141    19.5   880.8    0.00 
  20   18:00   0.00   39.4    90   11.8   143    15.5   880.8    0.01 
  20   18:10   0.00   39.6    90   14.4   144    22.4   880.6    0.00 
  20   18:20   0.00   39.7    90   16.5   143    22.2   880.5    0.01 
  20   18:30   0.00   39.7    90   16.0   146    22.9   880.3    0.00 
  20   18:40   0.00   39.7    90   15.2   147    20.7   880.3    0.00 
  20   18:50   0.00   39.6    89   13.4   146    19.6   880.3    0.01 
  20   19:00   0.00   39.6    90   12.8   146    18.6   880.2    0.00 
  20   19:10   0.00   39.8    90   13.1   151    18.0   880.1    0.00 
  20   19:20   0.00   39.9    89   10.3   166    16.6   880.2    0.00 
  20   19:30   0.00   39.5    88    6.0   189    14.0   880.2    0.01 
  20   19:40   0.00   39.3    88    9.0   182    13.4   880.1    0.00 
  20   19:50   0.00   39.5    88   11.5   164    16.1   879.9    0.00 
  20   20:00   0.00   39.4    88   10.3   167    16.5   880.0    0.02 
  20   20:10   0.00   39.4    88    7.7   181    13.7   880.1    0.00 
  20   20:20   0.00   39.0    88    4.5   186     8.6   880.1    0.01 
  20   20:30   0.00   38.6    89    3.0   175     4.0   880.2    0.00 
  20   20:40   0.00   38.4    89    3.9   172     6.3   880.1    0.00 
  20   20:50   0.00   38.4    88    3.6   190     5.9   880.1    0.00 
  20   21:00   0.00   38.5    87    4.1   173     6.1   880.2    0.00 
  20   21:10   0.00   38.7    86    3.0   156     4.4   880.3    0.00 
  20   21:20   0.00   38.8    86    3.2   165     5.6   880.3    0.00 
  20   21:30   0.00   38.6    87    3.1   192     5.1   880.4    0.01 
  20   21:40   0.00   38.4    88    2.5   166     5.3   880.5    0.00 

Return to Pahranagat N. Wildlife Refuge graphs page.


Western Regional Climate Center,wrcc@dri.edu